Time;durP1;ratioP1;P1;durP2;ratioP2;P2;SDS_P1;SDS_P2;PMS_P1;PMS_P2;Temp;Humidity;BMP_temperature;BMP_pressure;BME280_temperature;BME280_humidity;BME280_pressure;Samples;Min_cycle;Max_cycle;Signal;HPM_P1;HPM_P2
2022/04/05 00:00:53;;;;;;;0.95;0.70;;;17.00;52.90;;;;;;4932526;28;93974;-71
2022/04/05 00:03:19;;;;;;;1.88;0.82;;;17.00;52.80;;;;;;4933268;28;92981;-71
2022/04/05 00:05:44;;;;;;;1.63;0.70;;;17.00;52.80;;;;;;4931270;28;96183;-71
2022/04/05 00:08:10;;;;;;;1.17;0.52;;;17.00;52.90;;;;;;4932137;28;102827;-71
2022/04/05 00:10:36;;;;;;;0.93;0.60;;;16.90;52.80;;;;;;4932816;28;92785;-71
2022/04/05 00:13:05;;;;;;;1.30;0.80;;;17.00;52.90;;;;;;4932602;28;92751;-71
2022/04/05 00:15:34;;;;;;;1.27;0.75;;;17.00;52.80;;;;;;4932587;28;94290;-71
2022/04/05 00:18:00;;;;;;;0.90;0.60;;;17.00;52.80;;;;;;4931831;28;92976;-70
2022/04/05 00:20:29;;;;;;;1.02;0.70;;;16.90;52.80;;;;;;4932692;28;92684;-70
2022/04/05 00:22:55;;;;;;;1.65;0.95;;;16.90;52.80;;;;;;4933014;28;92299;-71
2022/04/05 00:25:21;;;;;;;1.05;0.60;;;17.00;52.80;;;;;;4914025;28;95889;-71
2022/04/05 00:27:47;;;;;;;1.10;0.55;;;16.90;52.80;;;;;;4931519;28;93127;-71
2022/04/05 00:30:15;;;;;;;1.70;0.68;;;16.90;52.70;;;;;;4932162;28;95623;-71
2022/04/05 00:32:41;;;;;;;1.63;0.50;;;16.90;53.60;;;;;;4932709;28;92555;-71
2022/04/05 00:35:08;;;;;;;1.30;0.70;;;16.90;52.70;;;;;;4932882;28;93287;-71
2022/04/05 00:37:34;;;;;;;1.50;0.50;;;16.90;52.60;;;;;;4932438;28;92913;-71
2022/04/05 00:40:00;;;;;;;1.52;0.70;;;16.90;52.70;;;;;;4931245;28;92587;-70
2022/04/05 00:42:26;;;;;;;1.63;0.60;;;16.90;52.60;;;;;;4931788;28;94284;-71
2022/04/05 00:44:51;;;;;;;1.05;0.63;;;16.90;52.60;;;;;;4931410;28;93132;-71
2022/04/05 00:47:19;;;;;;;1.70;0.85;;;16.90;52.60;;;;;;4931128;28;93564;-71
2022/04/05 00:49:46;;;;;;;0.82;0.60;;;16.90;52.50;;;;;;4932265;28;92433;-70
2022/04/05 00:52:17;;;;;;;2.13;0.90;;;16.90;52.50;;;;;;4932792;28;92595;-72
2022/04/05 00:54:46;;;;;;;1.67;0.80;;;16.90;52.50;;;;;;4931381;28;95360;-71
2022/04/05 00:57:14;;;;;;;1.00;0.68;;;16.90;52.50;;;;;;4932953;28;95221;-71
2022/04/05 00:59:42;;;;;;;1.30;0.60;;;16.90;52.50;;;;;;4932323;28;93042;-72
2022/04/05 01:02:14;;;;;;;1.85;0.90;;;16.90;52.50;;;;;;4934680;28;92574;-71
2022/04/05 01:04:54;;;;;;;2.50;0.70;;;16.90;52.50;;;;;;4935325;28;94227;-72
2022/04/05 01:07:22;;;;;;;1.90;0.75;;;16.90;52.40;;;;;;4937721;28;93850;-71
2022/04/05 01:09:53;;;;;;;1.25;0.60;;;16.90;52.50;;;;;;4935101;28;92521;-72
2022/04/05 01:12:20;;;;;;;1.23;0.70;;;16.80;52.40;;;;;;4932442;28;92125;-71
2022/04/05 01:14:47;;;;;;;1.55;0.75;;;16.90;52.40;;;;;;4932861;28;93062;-71
2022/04/05 01:17:13;;;;;;;1.15;0.68;;;16.80;52.40;;;;;;4932500;28;93812;-71
2022/04/05 01:19:39;;;;;;;1.35;0.60;;;16.90;52.50;;;;;;4930435;28;95486;-71
2022/04/05 01:22:04;;;;;;;0.80;0.50;;;16.80;52.30;;;;;;4932251;28;93040;-71
2022/04/05 01:24:32;;;;;;;1.40;0.60;;;16.80;52.30;;;;;;4931434;28;93118;-71
2022/04/05 01:26:58;;;;;;;1.15;0.65;;;16.80;52.30;;;;;;4931184;28;93841;-70
2022/04/05 01:29:26;;;;;;;2.28;0.90;;;16.80;52.40;;;;;;4931512;28;93041;-71
2022/04/05 01:32:02;;;;;;;1.30;0.70;;;16.90;52.40;;;;;;4931248;28;93324;-71
2022/04/05 01:34:29;;;;;;;1.52;0.70;;;16.80;52.30;;;;;;4930089;28;93061;-70
2022/04/05 01:36:57;;;;;;;1.52;0.80;;;16.80;52.30;;;;;;4932493;28;92633;-71
2022/04/05 01:39:26;;;;;;;1.15;0.55;;;16.80;52.30;;;;;;4931018;28;92885;-71
2022/04/05 01:41:53;;;;;;;1.00;0.60;;;16.80;52.20;;;;;;4931279;28;92622;-71
2022/04/05 01:44:18;;;;;;;0.80;0.50;;;16.80;52.30;;;;;;4929868;28;95598;-72
2022/04/05 01:46:44;;;;;;;1.48;0.70;;;16.80;52.20;;;;;;4930759;28;94908;-72
2022/04/05 01:49:13;;;;;;;1.52;0.52;;;16.80;52.30;;;;;;4931657;28;92647;-71
2022/04/05 01:51:39;;;;;;;1.38;0.50;;;16.80;52.20;;;;;;4932442;28;92850;-70
2022/04/05 01:54:06;;;;;;;1.45;0.80;;;16.80;52.30;;;;;;4932204;28;93095;-71
2022/04/05 01:56:32;;;;;;;1.52;0.60;;;16.80;52.20;;;;;;4929908;28;93838;-71
2022/04/05 01:58:59;;;;;;;1.10;0.60;;;16.80;52.30;;;;;;4931017;28;92649;-71
2022/04/05 02:01:25;;;;;;;1.73;0.70;;;16.80;52.20;;;;;;4931199;28;92353;-72
2022/04/05 02:03:50;;;;;;;1.30;0.60;;;16.80;52.30;;;;;;4931099;28;97987;-71
2022/04/05 02:06:16;;;;;;;2.05;0.70;;;16.80;52.30;;;;;;4931233;28;92908;-71
2022/04/05 02:08:42;;;;;;;1.20;0.70;;;16.80;52.30;;;;;;4929814;28;96711;-71
2022/04/05 02:11:07;;;;;;;1.40;0.60;;;16.70;52.20;;;;;;4932270;28;93239;-71
2022/04/05 02:13:33;;;;;;;2.70;0.80;;;16.70;52.20;;;;;;4930671;28;93038;-71
2022/04/05 02:16:03;;;;;;;1.67;0.60;;;16.70;52.20;;;;;;4931295;28;94001;-71
2022/04/05 02:18:29;;;;;;;2.10;0.77;;;16.70;52.20;;;;;;4931713;28;93005;-71
2022/04/05 02:20:55;;;;;;;0.75;0.50;;;16.70;52.30;;;;;;4930654;28;94600;-71
2022/04/05 02:23:21;;;;;;;1.48;0.60;;;16.70;52.30;;;;;;4929877;28;94860;-71
2022/04/05 02:25:47;;;;;;;1.05;0.50;;;16.70;52.20;;;;;;4930185;28;99652;-71
2022/04/05 02:28:12;;;;;;;1.55;0.70;;;16.70;52.20;;;;;;4930672;28;92582;-72
2022/04/05 02:30:39;;;;;;;1.35;0.60;;;16.70;52.20;;;;;;4930818;28;92819;-71
2022/04/05 02:33:05;;;;;;;1.20;0.65;;;16.70;52.30;;;;;;4929738;28;94978;-71
2022/04/05 02:35:31;;;;;;;1.38;0.70;;;16.70;53.30;;;;;;4931367;28;95633;-71
2022/04/05 02:38:01;;;;;;;1.00;0.60;;;16.70;52.30;;;;;;4930600;28;93077;-71
2022/04/05 02:40:27;;;;;;;1.25;0.60;;;16.70;52.20;;;;;;4930916;28;93070;-71
2022/04/05 02:42:54;;;;;;;1.52;0.70;;;16.60;52.20;;;;;;4930829;28;94463;-70
2022/04/05 02:45:19;;;;;;;1.00;0.60;;;16.70;52.30;;;;;;4932327;28;92709;-71
2022/04/05 02:47:45;;;;;;;2.00;0.70;;;16.70;52.30;;;;;;4934078;28;92534;-71
2022/04/05 02:50:11;;;;;;;1.30;0.68;;;16.60;52.20;;;;;;4934679;28;91762;-71
2022/04/05 02:52:37;;;;;;;0.93;0.50;;;16.60;52.20;;;;;;4933494;28;94466;-72
2022/04/05 02:55:04;;;;;;;1.52;0.52;;;16.70;52.30;;;;;;4932778;28;93945;-71
2022/04/05 02:57:30;;;;;;;1.83;0.63;;;16.60;52.30;;;;;;4931656;28;94998;-71
2022/04/05 02:59:56;;;;;;;0.98;0.50;;;16.60;52.30;;;;;;4929699;28;93004;-72
2022/04/05 03:02:22;;;;;;;2.08;0.70;;;16.60;52.30;;;;;;4930266;28;94031;-71
2022/04/05 03:04:48;;;;;;;2.63;0.70;;;16.60;52.30;;;;;;4931494;28;93810;-71
2022/04/05 03:07:15;;;;;;;1.20;0.60;;;16.60;52.20;;;;;;4932061;28;98816;-72
2022/04/05 03:09:41;;;;;;;1.48;0.63;;;16.60;52.40;;;;;;4934886;28;92908;-71
2022/04/05 03:12:07;;;;;;;1.50;0.63;;;16.60;52.30;;;;;;4933450;28;104775;-71
2022/04/05 03:14:33;;;;;;;1.90;0.80;;;16.60;52.30;;;;;;4935294;28;92803;-71
2022/04/05 04:21:12;;;;;;;0.90;0.70;;;16.40;52.40;;;;;;4872604;28;95973;-72
2022/04/05 04:23:38;;;;;;;1.10;0.60;;;16.40;52.50;;;;;;4876852;28;95173;-71
2022/04/05 04:26:05;;;;;;;1.00;0.60;;;16.40;52.50;;;;;;4875045;28;93961;-71
2022/04/05 04:28:31;;;;;;;2.30;0.60;;;16.40;52.40;;;;;;4875589;28;92549;-72
2022/04/05 04:30:57;;;;;;;1.38;0.50;;;16.40;52.40;;;;;;4876234;28;93628;-71
2022/04/05 04:33:22;;;;;;;0.70;0.50;;;16.40;52.50;;;;;;4875440;28;102752;-71
2022/04/05 04:35:48;;;;;;;0.77;0.45;;;16.40;52.40;;;;;;4876023;28;92940;-71
2022/04/05 04:38:15;;;;;;;1.20;0.63;;;16.40;52.40;;;;;;4874824;28;91899;-71
2022/04/05 04:40:45;;;;;;;1.15;0.45;;;16.40;52.50;;;;;;4874775;28;94468;-73
2022/04/05 04:43:10;;;;;;;1.75;0.50;;;16.40;52.40;;;;;;4874652;28;93055;-71
2022/04/05 04:45:37;;;;;;;0.98;0.40;;;16.40;52.40;;;;;;4873905;28;94846;-71
2022/04/05 04:48:03;;;;;;;0.95;0.60;;;16.40;52.40;;;;;;4874532;28;92946;-71
2022/04/05 04:50:28;;;;;;;0.85;0.63;;;16.40;52.40;;;;;;4874955;28;94199;-71
2022/04/05 04:52:54;;;;;;;0.82;0.50;;;16.40;53.40;;;;;;4874703;28;92646;-72
2022/04/05 04:55:19;;;;;;;1.63;0.57;;;16.40;52.40;;;;;;4875377;28;92830;-71
2022/04/05 04:57:45;;;;;;;0.68;0.50;;;16.40;52.40;;;;;;4874655;28;92449;-72
2022/04/05 05:00:11;;;;;;;1.60;0.60;;;16.40;52.40;;;;;;4874807;28;94587;-71
2022/04/05 05:02:50;;;;;;;1.23;0.50;;;16.40;52.40;;;;;;4875496;28;93875;-72
2022/04/05 05:05:21;;;;;;;1.17;0.70;;;16.40;52.40;;;;;;4874505;28;93026;-71
2022/04/05 05:07:51;;;;;;;0.82;0.65;;;16.40;52.40;;;;;;4874077;28;92886;-71
2022/04/05 05:10:20;;;;;;;0.93;0.52;;;16.40;52.40;;;;;;4872840;28;95593;-72
2022/04/05 05:12:46;;;;;;;0.70;0.50;;;16.40;52.40;;;;;;4874007;28;95565;-71
2022/04/05 05:15:17;;;;;;;0.75;0.43;;;16.40;52.50;;;;;;4874652;28;92586;-71
2022/04/05 05:17:43;;;;;;;1.63;0.60;;;16.40;52.40;;;;;;4878184;28;92479;-72
2022/04/05 05:20:10;;;;;;;0.75;0.60;;;16.40;52.40;;;;;;4892698;28;93338;-71
2022/04/05 05:22:36;;;;;;;0.80;0.50;;;16.40;52.40;;;;;;4892423;28;94218;-72
2022/04/05 05:25:03;;;;;;;0.80;0.70;;;16.40;52.40;;;;;;4893375;28;92551;-71
2022/04/05 05:27:29;;;;;;;1.10;0.70;;;16.40;52.50;;;;;;4892416;28;92221;-71
2022/04/05 05:29:54;;;;;;;1.00;0.85;;;16.40;52.40;;;;;;4892320;28;95207;-71
2022/04/05 05:32:20;;;;;;;2.03;0.90;;;16.40;52.40;;;;;;4902647;28;93529;-68
2022/04/05 05:34:46;;;;;;;2.60;0.80;;;16.40;52.40;;;;;;4911467;28;95139;-68
2022/04/05 05:37:12;;;;;;;14.48;1.23;;;16.40;52.40;;;;;;4912476;28;92440;-67
2022/04/05 05:39:38;;;;;;;5.07;1.00;;;16.40;52.70;;;;;;4912707;28;93276;-68
2022/04/05 05:42:06;;;;;;;11.15;1.30;;;16.40;52.80;;;;;;4912298;28;93214;-67
2022/04/05 05:44:32;;;;;;;7.82;1.00;;;16.40;52.70;;;;;;4911915;28;92932;-66
2022/04/05 05:46:57;;;;;;;6.10;0.93;;;16.40;52.70;;;;;;4912647;28;92569;-67
2022/04/05 05:49:23;;;;;;;19.90;1.80;;;16.40;52.60;;;;;;4911917;28;92926;-67
2022/04/05 05:51:49;;;;;;;8.75;1.20;;;16.40;52.70;;;;;;4912084;28;92796;-64
2022/04/05 05:54:15;;;;;;;8.18;1.70;;;16.50;52.80;;;;;;4911267;28;92931;-76
2022/04/05 05:56:42;;;;;;;7.85;1.60;;;16.50;53.00;;;;;;4911759;28;94715;-68
2022/04/05 05:59:07;;;;;;;14.15;2.47;;;16.50;53.10;;;;;;4909878;28;97092;-67
2022/04/05 06:01:33;;;;;;;4.40;1.35;;;16.50;53.20;;;;;;4912064;28;95670;-67
2022/04/05 06:04:00;;;;;;;6.63;1.40;;;16.50;53.30;;;;;;4912589;28;92728;-67
2022/04/05 06:06:28;;;;;;;7.80;1.23;;;16.50;53.40;;;;;;4912130;28;93004;-68
2022/04/05 06:08:55;;;;;;;4.82;1.25;;;16.50;53.60;;;;;;4911914;28;94550;-68
2022/04/05 06:11:21;;;;;;;4.20;1.20;;;16.60;53.60;;;;;;4912598;28;94358;-68
2022/04/05 06:13:47;;;;;;;8.43;1.40;;;16.80;53.40;;;;;;4912591;28;93614;-67
2022/04/05 06:16:14;;;;;;;8.77;1.85;;;16.90;53.20;;;;;;4913211;28;92141;-66
2022/04/05 06:18:42;;;;;;;5.55;1.70;;;17.00;53.10;;;;;;4911070;28;94161;-66
2022/04/05 06:21:09;;;;;;;8.13;1.52;;;17.00;53.20;;;;;;4911191;28;94497;-67
2022/04/05 06:23:34;;;;;;;9.63;1.60;;;17.10;53.10;;;;;;4910650;28;95367;-67
2022/04/05 06:26:01;;;;;;;6.22;1.60;;;17.20;52.90;;;;;;4912032;28;92977;-66
2022/04/05 06:28:27;;;;;;;5.15;1.45;;;17.10;52.90;;;;;;4911469;28;94865;-67
2022/04/05 06:30:52;;;;;;;26.08;4.45;;;17.20;52.90;;;;;;4911617;28;93346;-68
2022/04/05 06:33:21;;;;;;;23.55;3.90;;;17.30;53.60;;;;;;4912733;28;94102;-66
2022/04/05 06:35:54;;;;;;;18.33;3.80;;;17.30;54.20;;;;;;4911814;28;92519;-70
2022/04/05 06:38:20;;;;;;;13.82;4.40;;;17.50;54.40;;;;;;4911017;28;93248;-68
2022/04/05 06:40:46;;;;;;;19.27;4.35;;;17.50;53.90;;;;;;4911648;28;94196;-65
2022/04/05 06:43:14;;;;;;;12.63;4.28;;;17.50;53.60;;;;;;4915379;28;92644;-69
2022/04/05 06:45:40;;;;;;;13.07;4.40;;;17.50;53.60;;;;;;4913333;28;94136;-68
2022/04/05 06:48:06;;;;;;;10.75;4.00;;;17.50;53.50;;;;;;4915727;28;96894;-68
2022/04/05 06:50:33;;;;;;;16.02;3.90;;;17.40;53.50;;;;;;4916225;28;96893;-68
2022/04/05 06:53:00;;;;;;;11.43;4.22;;;17.40;53.70;;;;;;4917897;28;92676;-67
2022/04/05 06:55:27;;;;;;;13.10;4.00;;;17.40;53.70;;;;;;4917818;28;92571;-68
2022/04/05 06:57:53;;;;;;;16.25;4.43;;;17.40;53.90;;;;;;4916417;28;93115;-68
2022/04/05 07:00:22;;;;;;;8.40;3.80;;;17.30;54.70;;;;;;4915949;28;93645;-69
2022/04/05 07:02:48;;;;;;;18.13;4.45;;;17.30;55.70;;;;;;4915756;28;92554;-69
2022/04/05 07:05:14;;;;;;;13.10;4.07;;;17.30;56.60;;;;;;4916454;28;91830;-70
2022/04/05 07:07:40;;;;;;;13.07;4.40;;;17.30;57.10;;;;;;4916022;28;93458;-70
2022/04/05 07:10:07;;;;;;;10.98;4.43;;;17.30;57.60;;;;;;4915253;28;93961;-69
2022/04/05 07:12:34;;;;;;;16.00;4.20;;;17.30;57.90;;;;;;4914146;28;95145;-71
2022/04/05 07:14:59;;;;;;;10.90;4.28;;;17.20;58.10;;;;;;4916052;28;93059;-69
2022/04/05 07:17:25;;;;;;;11.07;4.22;;;17.20;58.50;;;;;;4913754;28;100653;-70
2022/04/05 07:19:52;;;;;;;10.32;4.40;;;17.20;58.70;;;;;;4914494;28;93957;-68
2022/04/05 07:22:17;;;;;;;16.55;4.75;;;17.20;58.90;;;;;;4915341;28;92729;-69
2022/04/05 07:24:43;;;;;;;10.00;4.45;;;17.20;59.10;;;;;;4915104;28;92527;-69
2022/04/05 07:27:08;;;;;;;13.20;3.90;;;17.20;59.20;;;;;;4914284;28;94154;-69
2022/04/05 07:29:34;;;;;;;14.23;4.10;;;17.20;59.20;;;;;;4914720;28;93193;-69
2022/04/05 07:32:00;;;;;;;9.18;3.65;;;17.10;58.60;;;;;;4915756;28;92417;-68
2022/04/05 07:34:26;;;;;;;10.18;4.00;;;17.10;58.30;;;;;;4914987;28;92794;-68
2022/04/05 07:36:52;;;;;;;8.70;4.10;;;17.10;58.20;;;;;;4913154;28;96401;-66
2022/04/05 07:39:21;;;;;;;10.20;4.22;;;17.10;58.20;;;;;;4914497;28;98107;-68
2022/04/05 07:41:47;;;;;;;9.40;3.85;;;17.10;58.60;;;;;;4915280;28;92639;-69
2022/04/05 07:44:13;;;;;;;8.93;3.95;;;17.00;58.40;;;;;;4914919;28;93032;-69
2022/04/05 07:46:39;;;;;;;9.80;3.97;;;17.00;58.70;;;;;;4915299;28;93943;-68
2022/04/05 07:49:04;;;;;;;9.52;4.40;;;17.00;58.70;;;;;;4914851;28;93787;-68
2022/04/05 07:51:30;;;;;;;7.43;3.60;;;16.90;58.50;;;;;;4913991;28;92662;-68
2022/04/05 07:53:55;;;;;;;11.43;4.18;;;17.00;58.60;;;;;;4915438;28;92336;-69
2022/04/05 07:56:21;;;;;;;7.63;3.47;;;16.90;58.60;;;;;;4914577;28;93134;-68
2022/04/05 07:58:47;;;;;;;10.45;3.88;;;16.90;58.70;;;;;;4914151;28;94024;-69
2022/04/05 08:01:13;;;;;;;9.45;3.58;;;16.90;58.90;;;;;;4914421;28;95208;-68
2022/04/05 08:03:39;;;;;;;8.82;3.67;;;16.80;58.80;;;;;;4914485;28;93041;-69
2022/04/05 08:06:05;;;;;;;10.85;3.90;;;16.80;58.90;;;;;;4914617;28;92699;-69
2022/04/05 08:08:31;;;;;;;7.43;3.75;;;16.80;58.80;;;;;;4914520;28;93970;-69
2022/04/05 08:10:57;;;;;;;10.73;3.70;;;16.80;58.80;;;;;;4914395;28;92924;-69
2022/04/05 08:13:23;;;;;;;7.28;3.08;;;16.80;58.80;;;;;;4915897;28;92598;-70
2022/04/05 08:15:49;;;;;;;10.93;3.28;;;16.80;58.80;;;;;;4913779;28;94597;-69
2022/04/05 08:18:15;;;;;;;10.75;3.55;;;16.80;58.80;;;;;;4914031;28;103366;-70
2022/04/05 08:20:41;;;;;;;4.75;2.78;;;16.80;58.80;;;;;;4913660;28;97369;-69
2022/04/05 08:23:10;;;;;;;10.13;3.60;;;16.80;58.80;;;;;;4914436;28;93559;-69
2022/04/05 08:25:36;;;;;;;11.00;3.30;;;16.80;58.80;;;;;;4913498;28;96516;-70
2022/04/05 08:28:03;;;;;;;9.38;3.30;;;16.80;58.80;;;;;;4913587;28;96243;-71
2022/04/05 08:30:29;;;;;;;9.88;2.85;;;16.70;58.70;;;;;;4914476;28;92628;-69
2022/04/05 08:32:54;;;;;;;7.50;3.03;;;16.70;58.70;;;;;;4914493;28;92621;-70
2022/04/05 08:35:21;;;;;;;6.68;2.72;;;16.80;58.80;;;;;;4913924;28;94300;-69
2022/04/05 08:37:49;;;;;;;6.75;3.17;;;16.70;58.70;;;;;;4914750;28;93373;-69
2022/04/05 08:40:17;;;;;;;8.40;3.00;;;16.70;58.70;;;;;;4914404;28;92512;-70
2022/04/05 08:42:47;;;;;;;8.40;3.30;;;16.70;58.60;;;;;;4914583;28;91692;-69
2022/04/05 08:45:14;;;;;;;9.43;2.95;;;16.70;58.60;;;;;;4914238;28;93042;-70
2022/04/05 08:47:46;;;;;;;6.75;3.00;;;16.70;58.50;;;;;;4913002;28;93852;-70
2022/04/05 08:50:15;;;;;;;7.95;2.83;;;16.70;58.50;;;;;;4912996;28;94903;-70
2022/04/05 08:52:42;;;;;;;10.65;3.10;;;16.70;58.50;;;;;;4914043;28;92550;-69
2022/04/05 08:55:08;;;;;;;5.78;2.70;;;16.70;58.50;;;;;;4913798;28;94947;-69
2022/04/05 08:57:34;;;;;;;8.65;3.10;;;16.60;58.40;;;;;;4913321;28;95002;-70
2022/04/05 09:00:01;;;;;;;5.10;2.38;;;16.70;58.40;;;;;;4913914;28;94270;-69
2022/04/05 09:02:27;;;;;;;5.85;2.85;;;16.70;58.40;;;;;;4914539;28;92934;-69
2022/04/05 09:04:53;;;;;;;8.20;2.95;;;16.70;58.40;;;;;;4912732;28;93809;-69
2022/04/05 09:07:23;;;;;;;5.53;2.63;;;16.70;59.30;;;;;;4913101;28;100262;-69
2022/04/05 09:10:17;;;;;;;7.03;2.75;;;16.70;58.20;;;;;;4913951;28;92667;-69
2022/04/05 09:12:47;;;;;;;8.02;2.88;;;16.70;58.20;;;;;;4914280;28;92580;-70
2022/04/05 09:15:24;;;;;;;5.03;2.28;;;16.60;58.10;;;;;;4911986;28;96597;-69
2022/04/05 09:17:52;;;;;;;5.65;2.55;;;16.70;58.10;;;;;;4912875;28;95713;-69
2022/04/05 09:20:20;;;;;;;5.28;2.55;;;16.70;58.10;;;;;;4912774;28;92990;-69
2022/04/05 09:22:45;;;;;;;9.40;3.83;;;16.70;58.10;;;;;;4913652;28;92919;-72
2022/04/05 09:25:15;;;;;;;5.10;2.30;;;16.60;57.90;;;;;;4914593;28;93587;-70
2022/04/05 09:27:48;;;;;;;6.40;2.47;;;16.70;57.90;;;;;;4912747;28;93873;-70
2022/04/05 09:30:23;;;;;;;8.70;2.78;;;16.70;57.90;;;;;;4913837;28;93074;-70
2022/04/05 09:32:51;;;;;;;6.30;2.60;;;16.60;57.80;;;;;;4914095;28;91847;-70
2022/04/05 09:35:20;;;;;;;6.68;2.38;;;16.60;57.80;;;;;;4914138;28;93167;-70
2022/04/05 09:37:46;;;;;;;4.78;2.13;;;16.70;57.80;;;;;;4912815;28;93978;-70
2022/04/05 09:40:32;;;;;;;5.72;2.38;;;16.60;57.70;;;;;;4911762;28;95346;-69
2022/04/05 09:43:02;;;;;;;8.52;2.78;;;16.70;57.80;;;;;;4914338;28;92934;-70
2022/04/05 09:45:43;;;;;;;5.40;2.35;;;16.70;57.70;;;;;;4914014;28;94153;-70
2022/04/05 09:48:09;;;;;;;4.97;2.28;;;16.70;57.60;;;;;;4913507;28;94028;-70
2022/04/05 09:51:02;;;;;;;5.95;2.30;;;16.70;57.70;;;;;;4912448;28;92952;-70
2022/04/05 09:53:29;;;;;;;5.85;2.15;;;16.70;57.60;;;;;;4912729;28;92534;-70
2022/04/05 09:56:18;;;;;;;4.63;2.10;;;16.60;57.50;;;;;;4912523;28;94340;-70
2022/04/05 09:58:53;;;;;;;4.95;2.10;;;16.70;57.50;;;;;;4914004;28;94515;-69
2022/04/05 10:01:21;;;;;;;5.18;2.05;;;16.70;57.60;;;;;;4913577;28;92789;-70
2022/04/05 10:04:03;;;;;;;5.63;2.13;;;16.70;57.50;;;;;;4913049;28;92850;-70
2022/04/05 10:06:30;;;;;;;5.65;2.20;;;16.70;57.40;;;;;;4911412;28;95368;-69
2022/04/05 10:08:57;;;;;;;5.35;2.13;;;16.70;57.50;;;;;;4911984;28;96114;-70
2022/04/05 10:11:28;;;;;;;6.60;2.50;;;16.60;57.30;;;;;;4912928;28;92543;-69
2022/04/05 10:13:55;;;;;;;6.68;2.33;;;16.70;57.40;;;;;;4912869;28;92679;-70
2022/04/05 10:16:24;;;;;;;4.78;2.20;;;16.60;57.50;;;;;;4910750;28;93738;-70
2022/04/05 10:18:51;;;;;;;5.63;2.10;;;16.70;57.40;;;;;;4913850;28;94052;-69
2022/04/05 10:21:19;;;;;;;4.20;2.15;;;16.60;57.40;;;;;;4894179;28;92999;-71
2022/04/05 10:23:47;;;;;;;6.00;2.17;;;16.70;57.40;;;;;;4913042;28;91834;-71
2022/04/05 10:26:18;;;;;;;6.25;2.05;;;16.70;58.40;;;;;;4912728;28;93676;-70
2022/04/05 10:28:48;;;;;;;5.32;2.05;;;16.60;57.30;;;;;;4911856;28;94495;-70
2022/04/05 10:31:22;;;;;;;3.47;1.73;;;16.60;57.20;;;;;;4912381;28;95241;-68
2022/04/05 10:33:52;;;;;;;4.45;1.80;;;16.60;57.20;;;;;;4913545;28;92511;-70
2022/04/05 10:36:24;;;;;;;5.80;1.98;;;16.60;57.20;;;;;;4912002;28;93695;-70
2022/04/05 10:39:25;;;;;;;2.97;1.90;;;16.60;57.30;;;;;;4912657;28;93901;-70
2022/04/05 10:42:09;;;;;;;5.13;2.13;;;16.60;58.10;;;;;;4874239;28;92730;-69
2022/04/05 10:44:39;;;;;;;6.68;2.30;;;16.60;57.20;;;;;;4910163;28;93248;-70
2022/04/05 10:47:06;;;;;;;5.35;2.25;;;16.60;57.20;;;;;;4911841;28;93213;-71
2022/04/05 10:49:33;;;;;;;4.75;1.75;;;16.60;57.30;;;;;;4913031;28;94226;-70
2022/04/05 10:52:17;;;;;;;3.90;1.88;;;16.60;57.20;;;;;;4911812;28;92683;-69
2022/04/05 10:54:49;;;;;;;3.40;1.83;;;16.60;57.10;;;;;;4912724;28;92755;-70
2022/04/05 10:57:26;;;;;;;4.43;1.80;;;16.60;57.30;;;;;;4910078;28;96441;-70
2022/04/05 11:00:25;;;;;;;4.75;2.03;;;16.60;57.10;;;;;;4913025;28;96144;-70
2022/04/05 11:02:54;;;;;;;4.53;1.95;;;16.60;57.10;;;;;;4912376;28;92767;-69
2022/04/05 11:05:19;;;;;;;6.40;2.00;;;16.60;57.10;;;;;;4912138;28;92541;-69
2022/04/05 11:07:54;;;;;;;5.00;2.00;;;16.60;57.10;;;;;;4912908;28;94208;-70
2022/04/05 11:10:28;;;;;;;4.85;2.17;;;16.60;57.00;;;;;;4912846;28;93266;-70
2022/04/05 11:13:18;;;;;;;4.00;1.70;;;16.60;57.00;;;;;;4913451;28;92548;-70
2022/04/05 11:15:47;;;;;;;3.72;2.08;;;16.60;57.00;;;;;;4913761;28;92345;-69
2022/04/05 11:18:21;;;;;;;5.32;2.10;;;16.60;57.00;;;;;;4911423;28;95088;-69
2022/04/05 11:20:51;;;;;;;3.85;1.77;;;16.60;57.00;;;;;;4910982;28;94174;-69
2022/04/05 11:23:19;;;;;;;5.40;1.80;;;16.60;57.00;;;;;;4911116;28;94926;-70
2022/04/05 11:25:45;;;;;;;5.43;2.00;;;16.60;57.00;;;;;;4911986;28;93124;-71
2022/04/05 11:28:21;;;;;;;3.95;1.83;;;16.60;56.90;;;;;;4913372;28;93484;-71
2022/04/05 11:30:48;;;;;;;3.60;1.60;;;16.60;56.80;;;;;;4915551;28;93906;-70
2022/04/05 11:33:25;;;;;;;2.53;1.70;;;16.60;56.80;;;;;;4915696;28;92595;-70
2022/04/05 11:35:53;;;;;;;3.03;1.73;;;16.60;56.80;;;;;;4916047;28;93023;-70
2022/04/05 11:38:18;;;;;;;4.75;1.90;;;16.60;56.80;;;;;;4915925;28;93050;-68
2022/04/05 11:40:46;;;;;;;5.28;2.20;;;16.60;56.80;;;;;;4915616;28;92811;-70
2022/04/05 11:43:18;;;;;;;5.47;1.83;;;16.60;56.80;;;;;;4915380;28;92808;-71
2022/04/05 11:45:48;;;;;;;5.88;2.20;;;16.60;57.80;;;;;;4914720;28;92750;-70
2022/04/05 11:48:18;;;;;;;3.65;1.92;;;16.60;56.80;;;;;;4913796;28;96660;-70
2022/04/05 11:50:43;;;;;;;5.05;1.92;;;16.60;56.80;;;;;;4914273;28;98565;-70
2022/04/05 11:53:26;;;;;;;4.13;1.80;;;16.60;56.80;;;;;;4915233;28;92654;-72
2022/04/05 11:56:05;;;;;;;3.50;1.75;;;16.60;56.70;;;;;;4914066;28;94944;-70
2022/04/05 11:58:34;;;;;;;4.50;1.73;;;16.60;56.80;;;;;;4914251;28;93159;-70
2022/04/05 12:01:01;;;;;;;3.13;1.80;;;16.60;56.80;;;;;;4915880;28;94046;-70
2022/04/05 12:03:27;;;;;;;4.53;2.00;;;16.60;56.80;;;;;;4918561;28;92864;-70
2022/04/05 12:05:53;;;;;;;4.47;1.88;;;16.60;56.80;;;;;;4915647;28;92370;-70
2022/04/05 12:08:19;;;;;;;4.18;1.73;;;16.60;56.80;;;;;;4914986;28;94178;-71
2022/04/05 12:10:45;;;;;;;4.43;1.75;;;16.60;56.80;;;;;;4915659;28;92565;-70
2022/04/05 12:13:13;;;;;;;3.20;1.90;;;16.60;56.70;;;;;;4913048;28;95519;-72
2022/04/05 12:15:38;;;;;;;3.17;1.55;;;16.60;57.70;;;;;;4915362;28;93171;-70
2022/04/05 12:18:19;;;;;;;5.28;1.88;;;16.60;56.60;;;;;;4914173;28;94423;-70
2022/04/05 12:20:54;;;;;;;3.28;1.50;;;16.60;56.70;;;;;;4914672;28;94288;-70
2022/04/05 12:23:21;;;;;;;4.15;1.90;;;16.60;56.60;;;;;;4913664;28;92582;-71
2022/04/05 12:26:02;;;;;;;3.50;1.70;;;16.60;56.60;;;;;;4915436;28;92777;-71
2022/04/05 12:28:28;;;;;;;3.88;1.60;;;16.60;56.60;;;;;;4914054;28;94191;-71
2022/04/05 12:31:06;;;;;;;4.50;1.75;;;16.60;56.60;;;;;;4915209;28;97538;-70
2022/04/05 12:33:31;;;;;;;5.10;1.80;;;16.60;56.60;;;;;;4914677;28;92547;-70
2022/04/05 12:35:58;;;;;;;2.40;1.42;;;16.60;56.60;;;;;;4916057;28;92639;-69
2022/04/05 12:38:23;;;;;;;4.53;1.77;;;16.60;56.60;;;;;;4912487;28;96722;-70
2022/04/05 12:40:49;;;;;;;2.67;1.50;;;16.60;56.60;;;;;;4913871;28;95674;-71
2022/04/05 12:43:22;;;;;;;3.05;1.75;;;16.60;56.60;;;;;;4914671;28;92564;-70
2022/04/05 12:45:49;;;;;;;3.47;1.80;;;16.60;56.60;;;;;;4914536;28;92880;-70
2022/04/05 12:48:19;;;;;;;2.60;1.63;;;16.60;56.60;;;;;;4915090;28;93243;-70
2022/04/05 12:50:49;;;;;;;4.10;1.70;;;16.60;56.50;;;;;;4914355;28;92902;-70
2022/04/05 12:53:30;;;;;;;3.30;1.73;;;16.60;56.60;;;;;;4914704;28;93003;-70
2022/04/05 12:55:59;;;;;;;3.67;1.85;;;16.60;56.60;;;;;;4914321;28;91829;-69
2022/04/05 12:58:45;;;;;;;2.97;1.80;;;16.60;56.60;;;;;;4913333;28;94203;-69
2022/04/05 13:01:17;;;;;;;3.05;1.50;;;16.60;56.60;;;;;;4914307;28;93395;-70
2022/04/05 13:03:42;;;;;;;4.15;1.85;;;16.60;56.60;;;;;;4913509;28;95176;-70
2022/04/05 13:06:20;;;;;;;4.30;1.73;;;16.60;56.60;;;;;;4914213;28;92633;-70
2022/04/05 13:08:47;;;;;;;3.78;1.52;;;16.60;56.60;;;;;;4914736;28;93063;-70
2022/04/05 13:11:28;;;;;;;4.25;2.00;;;16.60;56.60;;;;;;4913864;28;93780;-69
2022/04/05 13:14:10;;;;;;;3.97;1.80;;;16.60;56.60;;;;;;4914119;28;92532;-70
2022/04/05 13:16:36;;;;;;;3.75;1.40;;;16.50;56.60;;;;;;4913185;28;92899;-70
2022/04/05 13:19:07;;;;;;;2.78;1.70;;;16.50;56.60;;;;;;4913194;28;94857;-70
2022/04/05 13:21:50;;;;;;;2.88;1.70;;;16.50;57.50;;;;;;4912822;28;94107;-70
2022/04/05 13:24:17;;;;;;;3.10;1.83;;;16.60;56.60;;;;;;4914220;28;93074;-69
2022/04/05 13:26:48;;;;;;;3.63;1.90;;;16.50;56.60;;;;;;4914049;28;92580;-70
2022/04/05 13:29:26;;;;;;;3.13;1.70;;;16.60;56.70;;;;;;4911800;28;99228;-69
2022/04/05 13:31:57;;;;;;;3.97;1.70;;;16.50;56.60;;;;;;4913194;28;96242;-69
2022/04/05 13:34:28;;;;;;;5.00;1.80;;;16.60;56.60;;;;;;4914417;28;92522;-70
2022/04/05 13:36:54;;;;;;;3.47;1.58;;;16.60;56.60;;;;;;4913149;28;92589;-70
2022/04/05 13:39:21;;;;;;;4.45;1.85;;;16.60;56.60;;;;;;4913051;28;94811;-69
2022/04/05 13:41:47;;;;;;;2.58;1.75;;;16.60;56.50;;;;;;4913529;28;93133;-69
2022/04/05 13:44:13;;;;;;;3.00;1.50;;;16.60;56.50;;;;;;4914219;28;92780;-69
2022/04/05 13:46:39;;;;;;;4.07;1.77;;;16.60;56.50;;;;;;4913208;28;91791;-72
2022/04/05 13:49:10;;;;;;;2.38;1.55;;;16.60;56.40;;;;;;4912380;28;93398;-71
2022/04/05 13:51:37;;;;;;;3.80;1.60;;;16.60;56.40;;;;;;4913463;28;94281;-71
2022/04/05 13:54:04;;;;;;;2.67;1.80;;;16.60;56.40;;;;;;4911993;28;95925;-70
2022/04/05 13:56:33;;;;;;;3.20;1.63;;;16.60;56.40;;;;;;4912956;28;92938;-70